createdAt,value
2018-05-14T00:00:15.722Z,90.40
2018-05-14T00:02:43.252Z,90.40
2018-05-14T00:05:11.159Z,90.30
2018-05-14T00:07:38.689Z,90.30
2018-05-14T00:10:06.205Z,90.10
2018-05-14T00:12:34.119Z,90.20
2018-05-14T00:15:01.633Z,90.10
2018-05-14T00:17:29.628Z,90.10
2018-05-14T00:19:57.107Z,90.10
2018-05-14T00:22:24.685Z,90.00
2018-05-14T00:24:52.217Z,90.10
2018-05-14T00:27:19.752Z,90.00
2018-05-14T00:29:47.300Z,90.10
2018-05-14T00:32:14.969Z,90.20
2018-05-14T00:34:42.631Z,90.40
2018-05-14T00:37:10.126Z,90.50
2018-05-14T00:39:37.680Z,90.30
2018-05-14T00:42:05.205Z,90.20
2018-05-14T00:44:32.755Z,90.10
2018-05-14T00:47:00.257Z,90.10
2018-05-14T00:49:27.831Z,90.00
2018-05-14T00:51:55.723Z,90.00
2018-05-14T00:54:23.245Z,90.00
2018-05-14T00:56:50.809Z,90.30
2018-05-14T00:59:18.731Z,90.40
2018-05-14T01:01:46.262Z,90.30
2018-05-14T01:04:13.924Z,90.30
2018-05-14T01:06:41.617Z,90.10
2018-05-14T01:09:09.109Z,90.10
2018-05-14T01:11:37.046Z,90.00
2018-05-14T01:14:04.798Z,90.00
2018-05-14T01:16:32.338Z,90.00
2018-05-14T01:18:59.961Z,90.10
2018-05-14T01:21:27.517Z,90.30
2018-05-14T01:23:55.038Z,90.30
2018-05-14T01:26:22.599Z,90.30
2018-05-14T01:28:50.101Z,90.10
2018-05-14T01:31:17.610Z,90.10
2018-05-14T01:33:45.541Z,90.10
2018-05-14T01:36:13.053Z,90.30
2018-05-14T01:38:40.599Z,90.40
2018-05-14T01:41:08.519Z,90.80
2018-05-14T01:43:36.065Z,90.80
2018-05-14T01:46:03.585Z,91.40
2018-05-14T01:48:31.580Z,91.70
2018-05-14T01:50:59.240Z,91.80
2018-05-14T01:53:26.758Z,92.00
2018-05-14T01:55:54.696Z,92.30
2018-05-14T01:58:22.202Z,92.30
2018-05-14T02:00:49.733Z,92.40
2018-05-14T02:03:17.633Z,92.50
2018-05-14T02:05:45.189Z,92.60
2018-05-14T02:08:12.694Z,92.40
2018-05-14T02:10:40.241Z,92.40
2018-05-14T02:13:07.760Z,92.20
2018-05-14T02:15:35.293Z,92.30
2018-05-14T02:18:02.806Z,92.40
2018-05-14T02:20:30.340Z,92.50
2018-05-14T02:22:57.997Z,92.40
2018-05-14T02:25:25.641Z,92.30
2018-05-14T02:27:53.162Z,92.40
2018-05-14T02:30:21.062Z,92.30
2018-05-14T02:32:48.604Z,92.30
2018-05-14T02:35:16.173Z,92.50
2018-05-14T02:37:43.736Z,92.40
2018-05-14T02:40:11.244Z,92.50
2018-05-14T02:42:39.199Z,92.50
2018-05-14T02:45:06.901Z,92.50
2018-05-14T02:47:34.457Z,92.30
2018-05-14T02:50:01.994Z,92.00
2018-05-14T02:52:29.538Z,91.80
2018-05-14T02:54:57.444Z,91.60
2018-05-14T02:57:24.998Z,91.60
2018-05-14T02:59:52.537Z,91.50
2018-05-14T03:02:20.116Z,91.50
2018-05-14T03:04:47.629Z,91.50
2018-05-14T03:07:15.583Z,91.40
2018-05-14T03:09:43.300Z,91.40
2018-05-14T03:12:10.841Z,91.50
2018-05-14T03:14:38.409Z,91.40
2018-05-14T03:17:05.949Z,91.60
2018-05-14T03:19:33.453Z,91.80
2018-05-14T03:22:01.017Z,91.70
2018-05-14T03:24:28.527Z,91.70
2018-05-14T03:26:56.069Z,91.80
2018-05-14T03:29:23.732Z,91.70
2018-05-14T03:31:51.257Z,91.60
2018-05-14T03:34:19.212Z,91.70
2018-05-14T03:36:46.818Z,91.70
2018-05-14T03:39:14.402Z,91.80
2018-05-14T03:41:41.905Z,91.90
2018-05-14T03:44:09.845Z,92.30
2018-05-14T03:46:37.375Z,92.40
2018-05-14T03:49:04.913Z,92.60
2018-05-14T03:51:32.469Z,92.40
2018-05-14T03:54:00.009Z,92.30
2018-05-14T03:56:27.531Z,92.10
2018-05-14T03:59:06.873Z,92.00
2018-05-14T04:01:46.166Z,91.80
2018-05-14T04:04:25.378Z,91.70
2018-05-14T04:06:52.905Z,91.80
2018-05-14T04:09:21.352Z,91.70
2018-05-14T04:11:48.965Z,91.50
2018-05-14T04:14:16.505Z,91.50
2018-05-14T04:16:44.023Z,91.50
2018-05-14T04:19:11.577Z,91.50
2018-05-14T04:21:39.105Z,91.80
2018-05-14T04:24:06.647Z,91.70
2018-05-14T04:26:34.190Z,91.70
2018-05-14T04:29:01.758Z,91.70
2018-05-14T04:31:29.314Z,91.60
2018-05-14T04:33:56.821Z,91.80
2018-05-14T04:36:24.360Z,91.90
2018-05-14T04:38:51.875Z,92.00
2018-05-14T04:41:19.544Z,92.00
2018-05-14T04:43:47.069Z,92.40
2018-05-14T04:46:14.629Z,92.40
2018-05-14T04:48:42.226Z,92.50
2018-05-14T04:51:09.745Z,92.40
2018-05-14T04:53:37.300Z,92.40
2018-05-14T04:56:04.809Z,92.20
2018-05-14T04:58:32.348Z,92.40
2018-05-14T05:00:59.860Z,92.30
2018-05-14T05:03:27.409Z,92.40
2018-05-14T05:05:55.480Z,92.50
2018-05-14T05:08:23.478Z,92.20
2018-05-14T05:10:50.983Z,92.20
2018-05-14T05:13:18.543Z,92.20
2018-05-14T05:15:46.083Z,91.90
2018-05-14T05:18:13.617Z,92.00
2018-05-14T05:20:41.137Z,92.10
2018-05-14T05:23:08.694Z,91.90
2018-05-14T05:25:36.216Z,91.90
2018-05-14T05:28:03.778Z,91.60
2018-05-14T05:30:31.285Z,91.70
2018-05-14T05:32:58.796Z,91.50
2018-05-14T05:35:26.497Z,91.60
2018-05-14T05:37:54.019Z,91.60
2018-05-14T05:40:21.580Z,91.40
2018-05-14T05:42:49.083Z,91.60
2018-05-14T05:45:16.640Z,91.60
2018-05-14T05:47:44.179Z,91.60
2018-05-14T05:50:11.740Z,91.90
2018-05-14T05:52:39.249Z,91.90
2018-05-14T05:55:06.805Z,91.90
2018-05-14T05:57:34.712Z,91.70
2018-05-14T06:00:02.264Z,91.80
2018-05-14T06:02:29.794Z,91.70
2018-05-14T06:04:57.479Z,91.70
2018-05-14T06:07:25.042Z,91.70
2018-05-14T06:09:52.544Z,91.60
2018-05-14T06:12:20.101Z,91.30
2018-05-14T06:14:47.626Z,91.30
2018-05-14T06:17:15.177Z,91.00
2018-05-14T06:19:42.711Z,90.90
2018-05-14T06:22:10.260Z,91.00
2018-05-14T06:24:37.790Z,90.90
2018-05-14T06:27:05.325Z,90.30
2018-05-14T06:29:32.839Z,90.40
2018-05-14T06:32:00.381Z,90.30
2018-05-14T06:34:27.901Z,89.70
2018-05-14T06:36:55.905Z,89.20
2018-05-14T06:39:23.419Z,89.10
2018-05-14T06:41:50.989Z,89.00
2018-05-14T06:44:18.794Z,88.60
2018-05-14T06:46:46.216Z,88.80
2018-05-14T06:49:14.234Z,89.00
2018-05-14T06:51:41.869Z,89.00
2018-05-14T06:54:09.438Z,89.40
2018-05-14T06:56:36.997Z,89.10
2018-05-14T06:59:04.561Z,89.00
2018-05-14T07:01:32.077Z,88.50
2018-05-14T07:03:59.642Z,87.80
2018-05-14T07:06:27.170Z,88.10
2018-05-14T07:08:54.716Z,88.10
2018-05-14T07:11:22.217Z,87.50
2018-05-14T07:13:49.764Z,87.20
2018-05-14T07:16:17.438Z,87.00
2018-05-14T07:18:45.102Z,86.60
2018-05-14T07:21:12.623Z,85.30
2018-05-14T07:23:40.539Z,85.40
2018-05-14T07:26:08.072Z,85.30
2018-05-14T07:28:35.597Z,85.30
2018-05-14T07:31:03.539Z,84.80
2018-05-14T07:33:31.061Z,84.80
2018-05-14T07:35:58.633Z,85.20
2018-05-14T07:38:26.160Z,85.40
2018-05-14T07:40:53.809Z,85.60
2018-05-14T07:43:21.313Z,85.40
2018-05-14T07:45:48.874Z,84.20
2018-05-14T07:48:16.385Z,83.50
2018-05-14T07:50:43.938Z,83.50
2018-05-14T07:53:11.453Z,83.90
2018-05-14T07:55:39.005Z,83.80
2018-05-14T07:58:06.565Z,84.10
2018-05-14T08:00:34.365Z,84.00
2018-05-14T08:03:01.889Z,84.10
2018-05-14T08:05:29.405Z,84.60
2018-05-14T08:07:56.946Z,84.20
2018-05-14T08:10:24.465Z,84.10
2018-05-14T08:12:52.014Z,83.70
2018-05-14T08:15:19.933Z,82.30
2018-05-14T08:17:47.499Z,82.30
2018-05-14T08:20:15.024Z,83.10
2018-05-14T08:22:42.630Z,82.50
2018-05-14T08:25:10.156Z,82.10
2018-05-14T08:27:37.900Z,81.00
2018-05-14T08:30:05.456Z,81.60
2018-05-14T08:32:33.007Z,81.70
2018-05-14T08:35:00.669Z,81.20
2018-05-14T08:37:28.329Z,77.10
2018-05-14T08:39:55.748Z,77.70
2018-05-14T08:42:23.370Z,78.90
2018-05-14T08:44:51.224Z,77.50
2018-05-14T08:47:18.736Z,77.50
2018-05-14T08:49:46.429Z,76.30
2018-05-14T08:52:13.944Z,75.70
2018-05-14T08:54:41.517Z,75.80
2018-05-14T08:57:09.124Z,75.50
2018-05-14T08:59:36.678Z,73.80
2018-05-14T09:02:04.177Z,74.20
2018-05-14T09:04:31.729Z,73.30
2018-05-14T09:06:59.257Z,71.00
2018-05-14T09:09:26.801Z,66.90
2018-05-14T09:11:54.437Z,66.90
2018-05-14T09:14:21.999Z,65.80
2018-05-14T09:16:49.517Z,67.00
2018-05-14T09:19:17.144Z,68.10
2018-05-14T09:21:44.585Z,67.70
2018-05-14T09:24:12.180Z,66.70
2018-05-14T09:26:39.660Z,66.90
2018-05-14T09:29:07.179Z,64.30
2018-05-14T09:31:35.119Z,68.00
2018-05-14T09:34:02.857Z,68.00
2018-05-14T09:36:30.408Z,70.20
2018-05-14T09:38:57.935Z,71.70
2018-05-14T09:41:25.472Z,73.40
2018-05-14T09:43:53.373Z,72.40
2018-05-14T09:46:21.034Z,72.80
2018-05-14T09:48:48.589Z,74.80
2018-05-14T09:51:16.144Z,72.70
2018-05-14T09:53:43.669Z,70.00
2018-05-14T09:56:11.199Z,69.90
2018-05-14T09:58:38.716Z,72.80
2018-05-14T10:01:06.281Z,70.30
2018-05-14T10:03:33.857Z,68.70
2018-05-14T10:06:01.391Z,67.20
2018-05-14T10:08:28.924Z,67.20
2018-05-14T10:10:56.513Z,65.60
2018-05-14T10:13:24.066Z,65.90
2018-05-14T10:15:51.569Z,65.80
2018-05-14T10:18:19.121Z,67.60
2018-05-14T10:20:47.027Z,69.00
2018-05-14T10:23:14.588Z,69.00
2018-05-14T10:25:42.088Z,71.20
2018-05-14T10:28:09.640Z,70.00
2018-05-14T10:30:37.162Z,69.00
2018-05-14T10:33:04.693Z,70.10
2018-05-14T10:35:32.210Z,70.90
2018-05-14T10:37:59.752Z,71.70
2018-05-14T10:40:27.376Z,72.50
2018-05-14T10:42:55.036Z,72.30
2018-05-14T10:45:22.624Z,71.80
2018-05-14T10:47:50.128Z,73.10
2018-05-14T10:50:17.669Z,74.60
2018-05-14T10:52:46.106Z,74.00
2018-05-14T10:55:13.751Z,74.00
2018-05-14T10:57:41.265Z,71.60
2018-05-14T11:00:09.203Z,71.90
2018-05-14T11:02:36.743Z,71.90
2018-05-14T11:05:04.382Z,70.90
2018-05-14T11:07:31.897Z,70.60
2018-05-14T11:09:59.847Z,71.50
2018-05-14T11:12:27.362Z,71.50
2018-05-14T11:14:54.945Z,70.90
2018-05-14T11:17:22.666Z,71.40
2018-05-14T11:19:50.178Z,71.90
2018-05-14T11:22:18.141Z,72.30
2018-05-14T11:24:45.664Z,72.40
2018-05-14T11:27:13.212Z,70.50
2018-05-14T11:29:40.725Z,71.70
2018-05-14T11:32:08.430Z,73.20
2018-05-14T11:34:35.949Z,71.80
2018-05-14T11:37:03.524Z,71.30
2018-05-14T11:39:31.057Z,72.60
2018-05-14T11:41:58.617Z,72.40
2018-05-14T11:44:26.138Z,71.50
2018-05-14T11:46:53.962Z,71.40
2018-05-14T11:49:21.625Z,72.00
2018-05-14T11:51:49.185Z,72.90
2018-05-14T11:54:16.730Z,72.80
2018-05-14T11:56:44.339Z,72.90
2018-05-14T11:59:12.041Z,71.60
2018-05-14T12:01:39.567Z,73.00
2018-05-14T12:04:07.569Z,71.80
2018-05-14T12:06:35.087Z,71.80
2018-05-14T12:09:03.020Z,71.80
2018-05-14T12:11:30.527Z,71.80
2018-05-14T12:13:58.084Z,72.40
2018-05-14T12:16:25.621Z,73.50
2018-05-14T12:18:53.156Z,73.40
2018-05-14T12:21:20.777Z,73.80
2018-05-14T12:23:48.473Z,73.90
2018-05-14T12:26:15.985Z,73.10
2018-05-14T12:28:43.541Z,72.70
2018-05-14T12:31:11.274Z,73.40
2018-05-14T12:33:39.248Z,73.70
2018-05-14T12:36:06.790Z,73.70
2018-05-14T12:38:34.702Z,73.80
2018-05-14T12:41:02.426Z,73.80
2018-05-14T12:43:30.117Z,73.50
2018-05-14T12:45:57.854Z,74.30
2018-05-14T12:48:25.372Z,73.50
2018-05-14T12:50:52.981Z,72.70
2018-05-14T12:53:20.489Z,73.50
2018-05-14T12:55:48.030Z,73.20
2018-05-14T12:58:15.554Z,73.10
2018-05-14T13:00:43.119Z,73.80
2018-05-14T13:03:10.671Z,73.90
2018-05-14T13:05:38.189Z,74.20
2018-05-14T13:08:06.505Z,73.90
2018-05-14T13:10:34.037Z,73.90
2018-05-14T13:13:01.618Z,74.30
2018-05-14T13:15:29.128Z,74.20
2018-05-14T13:17:56.685Z,74.30
2018-05-14T13:20:24.742Z,74.30
2018-05-14T13:22:52.690Z,73.80
2018-05-14T13:25:20.217Z,73.80
2018-05-14T13:27:47.778Z,74.40
2018-05-14T13:30:15.301Z,73.80
2018-05-14T13:32:42.855Z,74.00
2018-05-14T13:35:10.390Z,74.20
2018-05-14T13:37:38.004Z,74.50
2018-05-14T13:40:05.529Z,74.90
2018-05-14T13:42:33.088Z,75.90
2018-05-14T13:45:00.751Z,76.00
2018-05-14T13:47:28.388Z,76.00
2018-05-14T13:49:56.340Z,76.20
2018-05-14T13:52:24.253Z,75.80
2018-05-14T13:54:51.794Z,75.80
2018-05-14T13:57:19.385Z,76.20
2018-05-14T13:59:47.238Z,74.60
2018-05-14T14:02:14.761Z,74.70
2018-05-14T14:04:42.309Z,75.10
2018-05-14T14:07:09.828Z,74.70
2018-05-14T14:09:37.381Z,73.40
2018-05-14T14:12:05.003Z,74.30
2018-05-14T14:14:32.569Z,74.90
2018-05-14T14:17:00.088Z,73.40
2018-05-14T14:19:27.674Z,74.60
2018-05-14T14:21:55.239Z,74.20
2018-05-14T14:24:22.818Z,74.50
2018-05-14T14:26:50.370Z,74.30
2018-05-14T14:29:17.901Z,74.70
2018-05-14T14:31:45.580Z,71.70
2018-05-14T14:34:13.060Z,69.90
2018-05-14T14:36:40.671Z,69.20
2018-05-14T14:39:08.204Z,68.50
2018-05-14T14:41:35.744Z,67.50
2018-05-14T14:44:03.440Z,67.30
2018-05-14T14:46:31.145Z,67.50
2018-05-14T14:48:58.560Z,67.40
2018-05-14T14:51:26.114Z,67.20
2018-05-14T14:53:53.638Z,67.20
2018-05-14T14:56:21.141Z,67.10
2018-05-14T14:58:48.682Z,66.10
2018-05-14T15:01:16.181Z,66.30
2018-05-14T15:03:43.749Z,66.00
2018-05-14T15:06:11.653Z,67.00
2018-05-14T15:08:39.206Z,67.00
2018-05-14T15:11:06.728Z,67.50
2018-05-14T15:13:34.716Z,68.30
2018-05-14T15:16:02.229Z,69.50
2018-05-14T15:18:29.851Z,71.80
2018-05-14T15:20:57.511Z,73.00
2018-05-14T15:23:25.156Z,77.60
2018-05-14T15:25:52.708Z,82.80
2018-05-14T15:28:20.272Z,85.80
2018-05-14T15:30:48.208Z,88.40
2018-05-14T15:33:16.104Z,90.10
2018-05-14T15:35:43.638Z,90.10
2018-05-14T15:38:11.153Z,90.80
2018-05-14T15:40:38.777Z,90.80
2018-05-14T15:43:06.273Z,91.80
2018-05-14T15:45:33.837Z,92.30
2018-05-14T15:48:01.794Z,92.70
2018-05-14T15:50:29.337Z,92.80
2018-05-14T15:52:56.861Z,93.10
2018-05-14T15:55:24.407Z,93.20
2018-05-14T15:57:51.909Z,93.10
2018-05-14T16:00:19.464Z,93.00
2018-05-14T16:02:46.960Z,92.80
2018-05-14T16:05:14.506Z,92.70
2018-05-14T16:07:42.025Z,92.60
2018-05-14T16:10:09.564Z,92.50
2018-05-14T16:12:37.080Z,92.00
2018-05-14T16:15:04.648Z,91.90
2018-05-14T16:17:32.153Z,91.40
2018-05-14T16:19:59.675Z,90.30
2018-05-14T16:22:27.214Z,90.40
2018-05-14T16:24:55.133Z,89.10
2018-05-14T16:27:22.686Z,89.10
2018-05-14T16:29:50.310Z,88.70
2018-05-14T16:32:17.863Z,87.60
2018-05-14T16:34:45.451Z,87.40
2018-05-14T16:37:12.931Z,87.60
2018-05-14T16:39:40.544Z,87.50
2018-05-14T16:42:08.204Z,87.00
2018-05-14T16:44:35.711Z,86.90
2018-05-14T16:47:03.648Z,86.90
2018-05-14T16:49:31.157Z,86.90
2018-05-14T16:51:58.824Z,86.80
2018-05-14T16:54:26.329Z,86.30
2018-05-14T16:56:53.840Z,86.50
2018-05-14T16:59:21.375Z,86.30
2018-05-14T17:01:48.884Z,86.70
2018-05-14T17:04:16.416Z,87.00
2018-05-14T17:06:43.939Z,86.80
2018-05-14T17:09:11.481Z,85.70
2018-05-14T17:11:38.987Z,86.10
2018-05-14T17:14:06.536Z,85.60
2018-05-14T17:16:34.191Z,85.50
2018-05-14T17:19:01.852Z,85.30
2018-05-14T17:21:29.363Z,84.90
2018-05-14T17:23:57.296Z,84.50
2018-05-14T17:26:24.879Z,84.60
2018-05-14T17:28:52.399Z,84.30
2018-05-14T17:31:19.912Z,84.40
2018-05-14T17:33:47.590Z,84.70
2018-05-14T17:36:15.107Z,84.70
2018-05-14T17:38:43.201Z,85.20
2018-05-14T17:41:10.644Z,85.20
2018-05-14T17:43:38.545Z,86.70
2018-05-14T17:46:06.119Z,86.70
2018-05-14T17:48:33.616Z,86.70
2018-05-14T17:51:01.554Z,86.90
2018-05-14T17:53:29.081Z,86.90
2018-05-14T17:55:56.740Z,87.70
2018-05-14T17:58:24.261Z,88.20
2018-05-14T18:00:51.793Z,88.70
2018-05-14T18:03:19.311Z,88.90
2018-05-14T18:05:46.867Z,89.40
2018-05-14T18:08:14.364Z,89.60
2018-05-14T18:10:41.906Z,89.80
2018-05-14T18:13:09.421Z,89.10
2018-05-14T18:15:36.917Z,89.80
2018-05-14T18:18:04.511Z,89.90
2018-05-14T18:20:32.396Z,90.40
2018-05-14T18:22:59.952Z,90.40
2018-05-14T18:25:33.097Z,90.50
2018-05-14T18:28:01.435Z,90.70
2018-05-14T18:30:28.952Z,90.90
2018-05-14T18:33:02.428Z,91.30
2018-05-14T18:35:36.049Z,91.50
2018-05-14T18:38:03.684Z,91.50
2018-05-14T18:40:31.209Z,91.70
2018-05-14T18:42:58.850Z,92.00
2018-05-14T18:45:26.378Z,91.90
2018-05-14T18:47:53.922Z,92.10
2018-05-14T18:50:21.475Z,92.20
2018-05-14T18:52:49.561Z,92.20
2018-05-14T18:55:17.084Z,92.20
2018-05-14T18:57:44.611Z,92.20
2018-05-14T19:00:12.169Z,92.30
2018-05-14T19:02:39.700Z,92.60
2018-05-14T19:05:07.253Z,92.80
2018-05-14T19:07:34.817Z,92.80
2018-05-14T19:10:02.351Z,92.80
2018-05-14T19:12:29.917Z,93.00
2018-05-14T19:15:03.097Z,93.20
2018-05-14T19:17:45.521Z,93.20
2018-05-14T19:20:13.056Z,93.10
2018-05-14T19:22:46.221Z,93.10
2018-05-14T19:25:14.157Z,92.80
2018-05-14T19:27:41.678Z,92.80
2018-05-14T19:30:09.234Z,93.00
2018-05-14T19:32:36.737Z,93.10
2018-05-14T19:35:09.841Z,93.30
2018-05-14T19:37:37.854Z,93.40
2018-05-14T19:40:11.112Z,93.40
2018-05-14T19:42:38.631Z,93.50
2018-05-14T19:45:06.227Z,93.60
2018-05-14T19:47:33.748Z,93.40
2018-05-14T19:50:01.270Z,93.70
2018-05-14T19:52:28.813Z,93.70
2018-05-14T19:54:56.366Z,93.80
2018-05-14T19:57:23.919Z,93.70
2018-05-14T19:59:52.339Z,93.70
2018-05-14T20:02:19.873Z,93.80
2018-05-14T20:04:47.381Z,93.80
2018-05-14T20:07:15.090Z,93.90
2018-05-14T20:09:42.603Z,94.00
2018-05-14T20:12:10.160Z,94.10
2018-05-14T20:14:37.669Z,94.20
2018-05-14T20:17:05.197Z,94.30
2018-05-14T20:19:32.721Z,94.50
2018-05-14T20:22:00.265Z,94.50
2018-05-14T20:24:28.181Z,94.50
2018-05-14T20:26:55.829Z,94.50
2018-05-14T20:29:23.345Z,94.60
2018-05-14T20:31:50.850Z,94.50
2018-05-14T20:34:18.402Z,94.50
2018-05-14T20:36:45.925Z,94.50
2018-05-14T20:39:13.481Z,94.50
2018-05-14T20:41:41.000Z,94.50
2018-05-14T20:44:08.539Z,94.50
2018-05-14T20:46:36.057Z,94.50
2018-05-14T20:49:03.626Z,94.40
2018-05-14T20:51:31.144Z,94.60
2018-05-14T20:53:59.093Z,94.70
2018-05-14T20:56:26.618Z,94.70
2018-05-14T20:58:54.173Z,94.90
2018-05-14T21:01:21.705Z,94.90
2018-05-14T21:03:49.281Z,95.00
2018-05-14T21:06:16.792Z,95.00
2018-05-14T21:08:44.342Z,95.00
2018-05-14T21:11:11.840Z,95.00
2018-05-14T21:13:39.405Z,94.90
2018-05-14T21:16:06.925Z,95.00
2018-05-14T21:18:34.829Z,95.00
2018-05-14T21:21:02.357Z,95.00
2018-05-14T21:23:29.868Z,94.90
2018-05-14T21:25:57.480Z,94.90
2018-05-14T21:28:24.985Z,94.90
2018-05-14T21:30:52.544Z,94.90
2018-05-14T21:33:20.454Z,95.10
2018-05-14T21:35:48.118Z,95.10
2018-05-14T21:38:15.628Z,94.90
2018-05-14T21:40:43.272Z,95.00
2018-05-14T21:43:10.789Z,95.00
2018-05-14T21:45:38.344Z,95.10
2018-05-14T21:48:06.004Z,95.00
2018-05-14T21:50:33.535Z,95.00
2018-05-14T21:53:01.435Z,95.00
2018-05-14T21:55:28.961Z,95.00
2018-05-14T21:57:56.497Z,94.90
2018-05-14T22:00:24.508Z,94.90
2018-05-14T22:02:52.058Z,94.90
2018-05-14T22:05:19.583Z,94.90
2018-05-14T22:07:47.138Z,94.90
2018-05-14T22:10:15.034Z,94.90
2018-05-14T22:12:42.569Z,94.90
2018-05-14T22:15:10.097Z,94.80
2018-05-14T22:17:37.694Z,94.70
2018-05-14T22:20:05.217Z,94.90
2018-05-14T22:22:32.734Z,95.00
2018-05-14T22:25:00.291Z,94.80
2018-05-14T22:27:27.935Z,94.70
2018-05-14T22:29:55.596Z,94.60
2018-05-14T22:32:23.109Z,94.40
2018-05-14T22:34:51.061Z,94.70
2018-05-14T22:37:18.597Z,94.70
2018-05-14T22:39:46.153Z,94.70
2018-05-14T22:42:13.669Z,94.90
2018-05-14T22:44:41.215Z,94.80
2018-05-14T22:47:08.728Z,94.60
2018-05-14T22:49:36.261Z,94.40
2018-05-14T22:52:03.770Z,94.50
2018-05-14T22:54:41.426Z,94.50
2018-05-14T22:57:08.952Z,94.50
2018-05-14T22:59:36.510Z,94.40
2018-05-14T23:02:04.033Z,94.40
2018-05-14T23:04:31.994Z,94.50
2018-05-14T23:06:59.588Z,94.50
2018-05-14T23:09:27.245Z,94.40
2018-05-14T23:11:54.784Z,94.30
2018-05-14T23:14:22.294Z,94.50
2018-05-14T23:16:49.840Z,94.20
2018-05-14T23:19:17.353Z,94.50
2018-05-14T23:21:44.893Z,94.60
2018-05-14T23:24:12.808Z,94.80
2018-05-14T23:26:40.341Z,94.80
2018-05-14T23:29:07.860Z,94.60
2018-05-14T23:31:35.796Z,94.60
2018-05-14T23:34:03.297Z,94.60
2018-05-14T23:36:30.847Z,94.50
2018-05-14T23:38:58.755Z,94.80
2018-05-14T23:41:26.305Z,94.80
2018-05-14T23:43:53.823Z,94.90
2018-05-14T23:46:21.782Z,94.90
2018-05-14T23:48:49.292Z,94.80
2018-05-14T23:51:16.827Z,94.90
2018-05-14T23:53:44.445Z,94.80
2018-05-14T23:56:12.362Z,94.70
2018-05-14T23:58:39.921Z,94.70
